Карточка аэропорта UWOO

Внимание!
Информация на этой странице в стадии наполнения.
Если вы не увидели какой-то информации, или заметили неточность - пожалуйста сообщите нам!
Спасибо!
Команда RU-STAFF
Название аэропортаОренбург
Название аэропорта (англ.)Orenburg
Превышение387 ft. (118 m.)
Координаты51°48', 55°27'
Высота перехода3000 ft
Эшелон переходаQNH>=1013hPa:FL40; QNH<1013hPa:FL50; QNH<977hPa:FL60
Коды ответчика2440-2443
Зона ОрВДСамара РПИ (UWWW)
Данные METARUWOO 310700Z 11004MPS CAVOK M13/M15 Q1023 R26/820550 NOSIG RMK QFE757/1009
Проноз погоды (TAF)UWOO 310441Z 3106/0106 10003MPS 9999 SCT016 TXM10/3110Z TNM20/0101Z TEMPO 3106/0106 12003G10MPS
NOTAMshow/hide NOTAM
AWOS   TABLE

Информация о ВПП

ВПП Длина ВПП (м.) Покрытие Курс ВПП Частота ILS
082500Асфальтобетон79109.9
262500Асфальтобетон259109.3

Диспетчерские позиции

Позывной Наименование органа УВД Частота
UWOO_TWRОренбург-Вышка128.000
UWOO_R_APPОренбург-Круг120.400



Спутниковое изображение